createdAt,value
2018-01-13T00:00:32.053Z,95800.22
2018-01-13T00:03:00.468Z,95792.83
2018-01-13T00:05:28.918Z,95798.30
2018-01-13T00:07:57.579Z,95802.45
2018-01-13T00:10:26.081Z,95801.08
2018-01-13T00:12:54.578Z,95794.05
2018-01-13T00:15:22.997Z,95791.05
2018-01-13T00:17:51.544Z,95794.30
2018-01-13T00:20:20.115Z,95793.72
2018-01-13T00:22:48.690Z,95790.45
2018-01-13T00:25:17.122Z,95796.64
2018-01-13T00:27:45.642Z,95798.37
2018-01-13T00:30:14.217Z,95795.22
2018-01-13T00:32:42.816Z,95796.44
2018-01-13T00:35:11.244Z,95797.41
2018-01-13T00:37:39.692Z,95794.48
2018-01-13T00:40:08.097Z,95798.02
2018-01-13T00:42:36.477Z,95801.33
2018-01-13T00:45:04.906Z,95798.62
2018-01-13T00:47:33.513Z,95804.13
2018-01-13T00:50:02.088Z,95799.21
2018-01-13T00:52:30.623Z,95796.88
2018-01-13T00:54:59.087Z,95800.05
2018-01-13T00:57:27.499Z,95807.36
2018-01-13T00:59:55.871Z,95803.05
2018-01-13T01:02:24.243Z,95799.03
2018-01-13T01:04:52.614Z,95807.28
2018-01-13T01:07:20.979Z,95799.16
2018-01-13T01:09:49.392Z,95796.09
2018-01-13T01:12:17.776Z,95797.52
2018-01-13T01:14:46.151Z,95795.86
2018-01-13T01:17:14.507Z,95797.00
2018-01-13T01:19:42.875Z,95802.66
2018-01-13T01:22:11.262Z,95800.45
2018-01-13T01:24:39.665Z,95796.42
2018-01-13T01:27:08.029Z,95804.30
2018-01-13T01:29:36.408Z,95798.55
2018-01-13T01:32:04.782Z,95802.20
2018-01-13T01:34:33.143Z,95807.50
2018-01-13T01:37:01.547Z,95810.10
2018-01-13T01:39:29.939Z,95809.50
2018-01-13T01:41:58.319Z,95803.05
2018-01-13T01:44:26.686Z,95800.34
2018-01-13T01:46:55.060Z,95800.94
2018-01-13T01:49:23.458Z,95799.13
2018-01-13T01:51:51.825Z,95794.30
2018-01-13T01:54:20.179Z,95800.41
2018-01-13T01:56:48.550Z,95799.09
2018-01-13T01:59:16.924Z,95793.52
2018-01-13T02:01:45.323Z,95797.44
2018-01-13T02:04:13.708Z,95795.34
2018-01-13T02:06:42.074Z,95797.91
2018-01-13T02:09:10.463Z,95790.86
2018-01-13T02:11:38.834Z,95790.16
2018-01-13T02:14:07.562Z,95787.77
2018-01-13T02:16:35.922Z,95789.77
2018-01-13T02:19:04.442Z,95784.64
2018-01-13T02:21:33.059Z,95785.28
2018-01-13T02:24:01.543Z,95787.09
2018-01-13T02:26:29.986Z,95781.34
2018-01-13T02:28:58.420Z,95777.19
2018-01-13T02:31:26.848Z,95777.78
2018-01-13T02:33:55.270Z,95782.73
2018-01-13T02:36:23.688Z,95781.52
2018-01-13T02:38:52.175Z,95779.14
2018-01-13T02:41:20.565Z,95785.94
2018-01-13T02:43:48.997Z,95785.55
2018-01-13T02:46:17.442Z,95782.52
2018-01-13T02:48:45.851Z,95781.42
2018-01-13T02:51:14.516Z,95777.87
2018-01-13T02:53:43.012Z,95775.50
2018-01-13T02:56:11.511Z,95770.95
2018-01-13T02:58:39.963Z,95778.25
2018-01-13T03:01:08.381Z,95765.31
2018-01-13T03:03:37.283Z,95772.45
2018-01-13T03:06:05.819Z,95766.13
2018-01-13T03:08:34.202Z,95762.06
2018-01-13T03:11:02.682Z,95762.28
2018-01-13T03:13:31.174Z,95762.63
2018-01-13T03:15:59.812Z,95762.91
2018-01-13T03:18:28.285Z,95761.88
2018-01-13T03:20:56.685Z,95755.97
2018-01-13T03:23:25.185Z,95758.33
2018-01-13T03:25:53.624Z,95759.05
2018-01-13T03:28:22.105Z,95761.53
2018-01-13T03:30:50.520Z,95753.75
2018-01-13T03:33:18.927Z,95749.58
2018-01-13T03:35:47.467Z,95753.81
2018-01-13T03:38:15.878Z,95753.31
2018-01-13T03:40:44.575Z,95753.52
2018-01-13T03:43:13.102Z,95747.44
2018-01-13T03:45:41.530Z,95748.64
2018-01-13T03:48:10.157Z,95743.12
2018-01-13T03:50:38.602Z,95741.30
2018-01-13T03:53:07.151Z,95737.67
2018-01-13T03:55:35.540Z,95739.96
2018-01-13T03:58:04.051Z,95734.03
2018-01-13T04:00:33.053Z,95730.02
2018-01-13T04:03:01.531Z,95731.36
2018-01-13T04:05:30.297Z,95726.48
2018-01-13T04:07:58.689Z,95731.86
2018-01-13T04:10:27.465Z,95726.70
2018-01-13T04:12:55.948Z,95726.63
2018-01-13T04:15:24.455Z,95731.07
2018-01-13T04:17:53.033Z,95727.93
2018-01-13T04:20:21.464Z,95721.19
2018-01-13T04:22:49.988Z,95722.27
2018-01-13T04:25:18.415Z,95722.65
2018-01-13T04:27:46.838Z,95721.48
2018-01-13T04:30:15.253Z,95730.84
2018-01-13T04:32:43.889Z,95729.17
2018-01-13T04:35:12.323Z,95731.36
2018-01-13T04:37:40.723Z,95732.08
2018-01-13T04:40:09.229Z,95728.51
2018-01-13T04:42:37.876Z,95730.30
2018-01-13T04:45:06.441Z,95724.48
2018-01-13T04:47:34.991Z,95727.10
2018-01-13T04:50:03.379Z,95718.14
2018-01-13T04:52:31.783Z,95722.98
2018-01-13T04:55:00.259Z,95722.86
2018-01-13T04:57:28.788Z,95717.05
2018-01-13T04:59:57.259Z,95714.90
2018-01-13T05:02:25.894Z,95716.34
2018-01-13T05:04:54.401Z,95713.77
2018-01-13T05:07:22.880Z,95720.66
2018-01-13T05:09:51.331Z,95713.77
2018-01-13T05:12:19.761Z,95715.52
2018-01-13T05:14:48.209Z,95716.55
2018-01-13T05:17:16.660Z,95718.74
2018-01-13T05:19:45.072Z,95721.08
2018-01-13T05:22:13.648Z,95724.85
2018-01-13T05:24:42.082Z,95722.42
2018-01-13T05:27:10.561Z,95723.44
2018-01-13T05:29:39.120Z,95720.18
2018-01-13T05:32:07.571Z,95729.09
2018-01-13T05:34:35.985Z,95727.89
2018-01-13T05:37:04.499Z,95722.87
2018-01-13T05:39:32.939Z,95729.41
2018-01-13T05:42:01.403Z,95727.27
2018-01-13T05:44:30.358Z,95722.80
2018-01-13T05:46:58.759Z,95727.75
2018-01-13T05:49:27.203Z,95729.38
2018-01-13T05:51:55.600Z,95725.16
2018-01-13T05:54:23.965Z,95729.72
2018-01-13T05:56:52.387Z,95731.25
2018-01-13T05:59:20.774Z,95729.84
2018-01-13T06:01:49.139Z,95730.22
2018-01-13T06:04:17.513Z,95731.02
2018-01-13T06:06:45.901Z,95733.58
2018-01-13T06:09:14.251Z,95734.79
2018-01-13T06:11:42.624Z,95735.77
2018-01-13T06:14:10.995Z,95735.55
2018-01-13T06:16:39.379Z,95731.34
2018-01-13T06:19:07.764Z,95728.22
2018-01-13T06:21:36.158Z,95736.94
2018-01-13T06:24:04.524Z,95730.75
2018-01-13T06:26:32.887Z,95727.55
2018-01-13T06:29:01.246Z,95732.66
2018-01-13T06:31:29.679Z,95727.10
2018-01-13T06:33:58.038Z,95732.70
2018-01-13T06:36:26.401Z,95738.60
2018-01-13T06:38:54.769Z,95727.63
2018-01-13T06:41:23.147Z,95727.78
2018-01-13T06:43:51.549Z,95727.19
2018-01-13T06:46:19.988Z,95729.19
2018-01-13T06:48:48.382Z,95726.76
2018-01-13T06:51:16.748Z,95732.47
2018-01-13T06:53:45.099Z,95724.12
2018-01-13T06:56:13.529Z,95729.97
2018-01-13T06:58:41.889Z,95729.89
2018-01-13T07:01:10.260Z,95732.52
2018-01-13T07:03:38.652Z,95734.50
2018-01-13T07:06:07.032Z,95734.41
2018-01-13T07:08:35.460Z,95726.09
2018-01-13T07:11:03.831Z,95725.20
2018-01-13T07:13:32.219Z,95721.48
2018-01-13T07:16:00.588Z,95728.89
2018-01-13T07:18:28.964Z,95731.50
2018-01-13T07:20:57.456Z,95732.12
2018-01-13T07:23:25.802Z,95736.43
2018-01-13T07:25:54.177Z,95731.00
2018-01-13T07:28:22.580Z,95727.52
2018-01-13T07:30:50.947Z,95726.41
2018-01-13T07:33:19.327Z,95732.36
2018-01-13T07:35:47.722Z,95731.47
2018-01-13T07:38:16.085Z,95728.28
2018-01-13T07:40:44.496Z,95726.25
2018-01-13T07:43:13.017Z,95732.97
2018-01-13T07:45:41.405Z,95729.41
2018-01-13T07:48:09.768Z,95732.96
2018-01-13T07:50:38.127Z,95738.16
2018-01-13T07:53:06.563Z,95741.91
2018-01-13T07:55:34.942Z,95743.03
2018-01-13T07:58:03.303Z,95743.14
2018-01-13T08:00:31.666Z,95747.55
2018-01-13T08:03:00.276Z,95743.44
2018-01-13T08:05:30.207Z,95750.41
2018-01-13T08:07:58.860Z,95749.11
2018-01-13T08:10:27.453Z,95749.75
2018-01-13T08:12:55.864Z,95751.61
2018-01-13T08:15:24.294Z,95753.42
2018-01-13T08:17:52.705Z,95750.56
2018-01-13T08:20:21.079Z,95748.08
2018-01-13T08:22:49.454Z,95750.40
2018-01-13T08:25:17.849Z,95749.20
2018-01-13T08:27:46.217Z,95750.89
2018-01-13T08:30:14.615Z,95751.86
2018-01-13T08:32:42.978Z,95748.00
2018-01-13T08:35:11.346Z,95751.22
2018-01-13T08:37:39.775Z,95749.48
2018-01-13T08:40:08.166Z,95748.73
2018-01-13T08:42:36.525Z,95743.80
2018-01-13T08:45:04.918Z,95747.98
2018-01-13T08:47:33.331Z,95749.00
2018-01-13T08:50:01.777Z,95747.59
2018-01-13T08:52:30.137Z,95750.67
2018-01-13T08:54:58.492Z,95751.09
2018-01-13T08:57:26.858Z,95755.45
2018-01-13T08:59:55.343Z,95753.98
2018-01-13T09:02:25.183Z,95753.30
2018-01-13T09:04:53.563Z,95755.83
2018-01-13T09:07:21.935Z,95754.01
2018-01-13T09:09:50.302Z,95752.19
2018-01-13T09:12:18.778Z,95755.66
2018-01-13T09:14:47.152Z,95757.73
2018-01-13T09:17:15.548Z,95749.58
2018-01-13T09:19:43.911Z,95750.72
2018-01-13T09:22:12.275Z,95755.42
2018-01-13T09:24:40.671Z,95754.52
2018-01-13T09:27:09.051Z,95753.38
2018-01-13T09:29:37.415Z,95753.23
2018-01-13T09:32:05.774Z,95757.95
2018-01-13T09:34:34.192Z,95751.75
2018-01-13T09:37:02.589Z,95759.42
2018-01-13T09:39:30.981Z,95754.09
2018-01-13T09:41:59.385Z,95756.42
2018-01-13T09:44:27.787Z,95755.18
2018-01-13T09:46:56.267Z,95760.38
2018-01-13T09:49:24.668Z,95753.73
2018-01-13T09:51:53.056Z,95760.30
2018-01-13T09:54:21.412Z,95750.06
2018-01-13T09:56:49.767Z,95755.27
2018-01-13T09:59:18.126Z,95752.85
2018-01-13T10:01:46.616Z,95753.36
2018-01-13T10:04:14.992Z,95756.21
2018-01-13T10:06:43.396Z,95753.42
2018-01-13T10:09:11.771Z,95751.55
2018-01-13T10:11:40.129Z,95744.75
2018-01-13T10:14:08.521Z,95745.38
2018-01-13T10:16:36.917Z,95743.55
2018-01-13T10:19:05.331Z,95744.45
2018-01-13T10:21:33.752Z,95747.40
2018-01-13T10:24:02.265Z,95741.53
2018-01-13T10:26:30.623Z,95740.50
2018-01-13T10:28:59.006Z,95737.03
2018-01-13T10:31:27.500Z,95739.11
2018-01-13T10:33:55.940Z,95737.62
2018-01-13T10:36:24.300Z,95739.77
2018-01-13T10:38:52.662Z,95739.67
2018-01-13T10:41:21.053Z,95743.26
2018-01-13T10:43:49.411Z,95734.86
2018-01-13T10:46:17.848Z,95744.16
2018-01-13T10:48:46.214Z,95741.19
2018-01-13T10:51:14.587Z,95742.59
2018-01-13T10:53:42.984Z,95740.11
2018-01-13T10:56:11.473Z,95744.46
2018-01-13T10:58:39.847Z,95738.41
2018-01-13T11:01:08.222Z,95737.34
2018-01-13T11:03:37.419Z,95740.91
2018-01-13T11:06:05.986Z,95737.34
2018-01-13T11:08:34.342Z,95733.79
2018-01-13T11:11:02.706Z,95728.34
2018-01-13T11:13:31.087Z,95725.27
2018-01-13T11:15:59.487Z,95728.96
2018-01-13T11:18:27.909Z,95724.75
2018-01-13T11:20:56.273Z,95719.79
2018-01-13T11:23:24.725Z,95719.19
2018-01-13T11:25:53.060Z,95714.06
2018-01-13T11:28:21.428Z,95706.89
2018-01-13T11:30:49.816Z,95707.54
2018-01-13T11:33:18.183Z,95709.55
2018-01-13T11:35:46.597Z,95715.41
2018-01-13T11:38:15.000Z,95704.97
2018-01-13T11:40:43.393Z,95708.53
2018-01-13T11:43:11.772Z,95716.50
2018-01-13T11:45:40.139Z,95715.67
2018-01-13T11:48:08.548Z,95713.17
2018-01-13T11:50:36.923Z,95713.61
2018-01-13T11:53:05.302Z,95709.61
2018-01-13T11:55:33.671Z,95701.94
2018-01-13T11:58:02.072Z,95704.46
2018-01-13T12:00:30.469Z,95705.13
2018-01-13T12:02:58.848Z,95704.53
2018-01-13T12:05:27.247Z,95702.01
2018-01-13T12:07:55.607Z,95693.06
2018-01-13T12:10:23.965Z,95691.12
2018-01-13T12:12:52.429Z,95688.79
2018-01-13T12:15:20.807Z,95680.65
2018-01-13T12:17:49.196Z,95687.05
2018-01-13T12:20:17.608Z,95683.67
2018-01-13T12:22:45.992Z,95677.55
2018-01-13T12:25:14.380Z,95676.62
2018-01-13T12:27:42.756Z,95672.58
2018-01-13T12:30:11.171Z,95672.05
2018-01-13T12:32:39.587Z,95671.91
2018-01-13T12:35:07.947Z,95668.39
2018-01-13T12:37:36.318Z,95673.81
2018-01-13T12:40:04.680Z,95674.22
2018-01-13T12:42:33.073Z,95670.40
2018-01-13T12:45:01.481Z,95668.22
2018-01-13T12:47:29.846Z,95667.16
2018-01-13T12:49:58.225Z,95662.42
2018-01-13T12:52:26.613Z,95666.44
2018-01-13T12:54:54.986Z,95667.83
2018-01-13T12:57:23.550Z,95663.44
2018-01-13T12:59:51.900Z,95666.88
2018-01-13T13:02:20.274Z,95660.72
2018-01-13T13:04:48.654Z,95660.85
2018-01-13T13:07:17.043Z,95666.30
2018-01-13T13:09:45.441Z,95665.01
2018-01-13T13:12:13.791Z,95667.92
2018-01-13T13:14:42.205Z,95664.56
2018-01-13T13:17:10.560Z,95667.98
2018-01-13T13:19:39.021Z,95659.89
2018-01-13T13:22:07.379Z,95664.52
2018-01-13T13:24:35.803Z,95655.94
2018-01-13T13:27:04.222Z,95653.34
2018-01-13T13:29:32.584Z,95650.97
2018-01-13T13:32:00.984Z,95644.52
2018-01-13T13:34:29.361Z,95642.77
2018-01-13T13:36:57.719Z,95631.19
2018-01-13T13:39:26.152Z,95634.08
2018-01-13T13:41:54.526Z,95632.09
2018-01-13T13:44:22.928Z,95630.71
2018-01-13T13:46:51.331Z,95634.16
2018-01-13T13:49:19.747Z,95632.94
2018-01-13T13:51:48.163Z,95634.91
2018-01-13T13:54:16.576Z,95639.41
2018-01-13T13:56:44.928Z,95632.59
2018-01-13T13:59:13.323Z,95630.64
2018-01-13T14:01:41.737Z,95635.27
2018-01-13T14:04:10.362Z,95635.87
2018-01-13T14:06:38.739Z,95629.81
2018-01-13T14:09:07.173Z,95629.77
2018-01-13T14:11:35.542Z,95623.81
2018-01-13T14:14:03.925Z,95623.82
2018-01-13T14:16:32.334Z,95622.83
2018-01-13T14:19:00.820Z,95620.59
2018-01-13T14:21:29.183Z,95623.42
2018-01-13T14:23:57.595Z,95625.55
2018-01-13T14:26:26.020Z,95623.00
2018-01-13T14:28:54.412Z,95622.07
2018-01-13T14:31:22.810Z,95618.45
2018-01-13T14:33:51.178Z,95618.81
2018-01-13T14:36:19.547Z,95615.00
2018-01-13T14:38:47.936Z,95614.05
2018-01-13T14:41:16.465Z,95610.91
2018-01-13T14:43:44.830Z,95604.02
2018-01-13T14:46:13.206Z,95595.14
2018-01-13T14:48:41.591Z,95597.64
2018-01-13T14:51:09.967Z,95598.43
2018-01-13T14:53:38.356Z,95593.56
2018-01-13T14:56:06.728Z,95595.02
2018-01-13T14:58:35.102Z,95587.30
2018-01-13T15:01:03.487Z,95591.05
2018-01-13T15:03:31.868Z,95581.94
2018-01-13T15:06:00.322Z,95584.03
2018-01-13T15:08:28.677Z,95589.69
2018-01-13T15:10:57.062Z,95590.17
2018-01-13T15:13:25.557Z,95584.23
2018-01-13T15:15:53.947Z,95584.48
2018-01-13T15:18:22.395Z,95581.25
2018-01-13T15:20:50.775Z,95590.17
2018-01-13T15:23:19.170Z,95585.36
2018-01-13T15:25:47.630Z,95581.16
2018-01-13T15:28:16.038Z,95586.16
2018-01-13T15:30:44.443Z,95581.59
2018-01-13T15:33:12.922Z,95578.41
2018-01-13T15:35:41.347Z,95582.49
2018-01-13T15:38:09.733Z,95573.17
2018-01-13T15:40:38.133Z,95581.07
2018-01-13T15:43:06.616Z,95576.53
2018-01-13T15:45:34.975Z,95574.72
2018-01-13T15:48:03.351Z,95574.73
2018-01-13T15:50:31.715Z,95576.39
2018-01-13T15:53:00.080Z,95568.90
2018-01-13T15:55:28.468Z,95570.42
2018-01-13T15:57:56.883Z,95575.24
2018-01-13T16:00:25.287Z,95570.42
2018-01-13T16:02:53.661Z,95566.29
2018-01-13T16:05:22.077Z,95571.00
2018-01-13T16:07:50.435Z,95562.78
2018-01-13T16:10:18.802Z,95564.67
2018-01-13T16:12:47.180Z,95564.76
2018-01-13T16:15:15.563Z,95559.55
2018-01-13T16:17:43.960Z,95572.28
2018-01-13T16:20:12.318Z,95561.55
2018-01-13T16:22:40.699Z,95561.95
2018-01-13T16:25:09.095Z,95556.92
2018-01-13T16:27:37.537Z,95559.11
2018-01-13T16:30:06.037Z,95564.28
2018-01-13T16:32:34.457Z,95554.44
2018-01-13T16:35:02.827Z,95556.72
2018-01-13T16:37:31.186Z,95562.66
2018-01-13T16:39:59.553Z,95555.81
2018-01-13T16:42:28.062Z,95552.64
2018-01-13T16:44:56.430Z,95550.98
2018-01-13T16:47:24.828Z,95562.18
2018-01-13T16:49:53.222Z,95551.95
2018-01-13T16:52:21.603Z,95563.38
2018-01-13T16:54:50.032Z,95566.05
2018-01-13T16:57:18.394Z,95566.20
2018-01-13T16:59:46.778Z,95575.96
2018-01-13T17:02:15.147Z,95568.19
2018-01-13T17:04:43.514Z,95578.69
2018-01-13T17:07:11.914Z,95572.33
2018-01-13T17:09:40.288Z,95566.89
2018-01-13T17:12:08.654Z,95565.41
2018-01-13T17:14:37.026Z,95563.90
2018-01-13T17:17:05.407Z,95560.97
2018-01-13T17:19:33.810Z,95565.14
2018-01-13T17:22:02.187Z,95566.39
2018-01-13T17:24:30.566Z,95560.38
2018-01-13T17:26:58.931Z,95555.30
2018-01-13T17:29:27.290Z,95553.45
2018-01-13T17:31:55.793Z,95562.22
2018-01-13T17:34:24.156Z,95562.92
2018-01-13T17:36:52.519Z,95560.30
2018-01-13T17:39:20.879Z,95556.82
2018-01-13T17:41:49.295Z,95557.73
2018-01-13T17:44:17.680Z,95548.88
2018-01-13T17:46:46.078Z,95548.83
2018-01-13T17:49:14.448Z,95541.67
2018-01-13T17:51:42.799Z,95532.02
2018-01-13T17:54:11.213Z,95534.37
2018-01-13T17:56:39.602Z,95533.07
2018-01-13T17:59:08.017Z,95536.58
2018-01-13T18:01:36.392Z,95537.70
2018-01-13T18:04:04.788Z,95544.50
2018-01-13T18:06:33.199Z,95545.70
2018-01-13T18:09:01.562Z,95538.27
2018-01-13T18:11:29.956Z,95549.55
2018-01-13T18:13:58.331Z,95546.03
2018-01-13T18:16:26.720Z,95541.21
2018-01-13T18:18:55.119Z,95543.59
2018-01-13T18:21:23.491Z,95541.69
2018-01-13T18:23:51.858Z,95547.80
2018-01-13T18:26:20.344Z,95550.30
2018-01-13T18:28:48.705Z,95542.06
2018-01-13T18:31:17.199Z,95554.16
2018-01-13T18:33:45.554Z,95543.44
2018-01-13T18:36:13.904Z,95550.09
2018-01-13T18:38:42.290Z,95537.03
2018-01-13T18:41:10.658Z,95543.47
2018-01-13T18:43:39.047Z,95546.72
2018-01-13T18:46:07.460Z,95530.22
2018-01-13T18:48:35.816Z,95535.73
2018-01-13T18:51:04.179Z,95532.31
2018-01-13T18:53:32.534Z,95532.33
2018-01-13T18:56:00.934Z,95532.56
2018-01-13T18:58:29.311Z,95531.70
2018-01-13T19:00:57.706Z,95524.98
2018-01-13T19:03:26.084Z,95533.96
2018-01-13T19:05:54.459Z,95526.55
2018-01-13T19:08:22.855Z,95526.21
2018-01-13T19:10:51.366Z,95536.34
2018-01-13T19:13:19.752Z,95532.31
2018-01-13T19:15:48.148Z,95528.07
2018-01-13T19:18:16.508Z,95520.83
2018-01-13T19:20:44.871Z,95527.80
2018-01-13T19:23:13.263Z,95525.14
2018-01-13T19:25:41.829Z,95521.05
2018-01-13T19:28:10.188Z,95523.77
2018-01-13T19:30:38.604Z,95517.23
2018-01-13T19:33:07.034Z,95523.00
2018-01-13T19:35:35.422Z,95512.02
2018-01-13T19:38:03.791Z,95519.65
2018-01-13T19:40:32.269Z,95508.20
2018-01-13T19:43:00.694Z,95512.45
2018-01-13T19:45:29.145Z,95507.10
2018-01-13T19:47:57.582Z,95511.58
2018-01-13T19:50:26.050Z,95503.36
2018-01-13T19:52:54.403Z,95508.77
2018-01-13T19:55:22.794Z,95512.94
2018-01-13T19:57:51.186Z,95504.45
2018-01-13T20:00:19.528Z,95507.71
2018-01-13T20:02:47.938Z,95495.25
2018-01-13T20:05:16.335Z,95499.23
2018-01-13T20:07:44.737Z,95503.42
2018-01-13T20:10:13.144Z,95501.05
2018-01-13T20:12:41.529Z,95496.45
2018-01-13T20:15:09.887Z,95505.39
2018-01-13T20:17:38.303Z,95496.47
2018-01-13T20:20:06.785Z,95492.61
2018-01-13T20:22:40.752Z,95489.25
2018-01-13T20:25:09.143Z,95481.16
2018-01-13T20:27:37.561Z,95479.77
2018-01-13T20:30:06.090Z,95486.19
2018-01-13T20:32:34.500Z,95480.45
2018-01-13T20:35:02.905Z,95488.84
2018-01-13T20:37:31.267Z,95481.73
2018-01-13T20:39:59.654Z,95484.72
2018-01-13T20:42:28.023Z,95484.16
2018-01-13T20:44:56.400Z,95487.75
2018-01-13T20:47:24.811Z,95487.67
2018-01-13T20:49:53.282Z,95486.86
2018-01-13T20:52:21.651Z,95481.23
2018-01-13T20:54:50.028Z,95479.45
2018-01-13T20:57:18.398Z,95465.73
2018-01-13T20:59:46.854Z,95459.55
2018-01-13T21:02:15.215Z,95463.08
2018-01-13T21:04:43.596Z,95463.48
2018-01-13T21:07:11.961Z,95463.65
2018-01-13T21:09:40.331Z,95470.40
2018-01-13T21:12:08.809Z,95458.73
2018-01-13T21:14:37.187Z,95465.36
2018-01-13T21:17:05.560Z,95464.13
2018-01-13T21:19:33.934Z,95468.11
2018-01-13T21:22:02.303Z,95464.58
2018-01-13T21:24:30.696Z,95466.37
2018-01-13T21:26:59.095Z,95466.44
2018-01-13T21:29:27.473Z,95461.45
2018-01-13T21:31:55.831Z,95464.87
2018-01-13T21:34:24.205Z,95459.63
2018-01-13T21:36:52.614Z,95452.34
2018-01-13T21:39:21.002Z,95447.67
2018-01-13T21:41:49.366Z,95447.20
2018-01-13T21:44:17.729Z,95453.03
2018-01-13T21:46:46.090Z,95453.40
2018-01-13T21:49:14.442Z,95450.95
2018-01-13T21:51:42.830Z,95450.34
2018-01-13T21:54:11.189Z,95458.87
2018-01-13T21:56:39.591Z,95455.59
2018-01-13T21:59:07.959Z,95458.05
2018-01-13T22:01:36.344Z,95461.89
2018-01-13T22:04:04.876Z,95454.38
2018-01-13T22:06:33.329Z,95460.41
2018-01-13T22:09:01.691Z,95458.27
2018-01-13T22:11:30.205Z,95468.20
2018-01-13T22:13:58.573Z,95460.69
2018-01-13T22:16:26.962Z,95463.45
2018-01-13T22:18:55.326Z,95469.56
2018-01-13T22:21:23.752Z,95466.80
2018-01-13T22:23:52.127Z,95470.22
2018-01-13T22:26:20.480Z,95466.82
2018-01-13T22:28:48.925Z,95461.97
2018-01-13T22:31:17.345Z,95462.68
2018-01-13T22:33:45.740Z,95460.81
2018-01-13T22:36:14.115Z,95454.67
2018-01-13T22:38:42.496Z,95445.63
2018-01-13T22:41:11.834Z,95450.43
2018-01-13T22:43:40.211Z,95447.56
2018-01-13T22:46:08.567Z,95449.94
2018-01-13T22:48:36.946Z,95444.85
2018-01-13T22:51:05.349Z,95437.70
2018-01-13T22:53:33.718Z,95447.79
2018-01-13T22:56:02.079Z,95445.80
2018-01-13T22:58:30.439Z,95445.39
2018-01-13T23:00:58.811Z,95441.58
2018-01-13T23:03:27.173Z,95450.30
2018-01-13T23:05:55.605Z,95440.99
2018-01-13T23:08:23.975Z,95445.28
2018-01-13T23:10:52.349Z,95439.61
2018-01-13T23:13:20.807Z,95438.95
2018-01-13T23:15:49.184Z,95436.16
2018-01-13T23:18:17.582Z,95426.02
2018-01-13T23:20:45.926Z,95429.71
2018-01-13T23:23:14.292Z,95427.79
2018-01-13T23:25:42.655Z,95426.52
2018-01-13T23:28:11.077Z,95420.33
2018-01-13T23:30:39.442Z,95424.62
2018-01-13T23:33:07.815Z,95422.34
2018-01-13T23:35:36.158Z,95427.63
2018-01-13T23:38:04.548Z,95425.31
2018-01-13T23:40:33.004Z,95420.48
2018-01-13T23:43:01.375Z,95417.67
2018-01-13T23:45:29.732Z,95423.34
2018-01-13T23:47:58.083Z,95422.94
2018-01-13T23:50:26.439Z,95416.02
2018-01-13T23:52:54.821Z,95403.39
2018-01-13T23:55:23.171Z,95404.23
2018-01-13T23:57:51.567Z,95396.58
